CheckWX is a tool to help pilots better visualize weather data.  It is not intended as a substitute for an official pre-flight weather briefing.

13:35:06 UTC

KRTN METAR
Raton Municipal / Crews Field Airport
Raton, New Mexico, USA
Current

42 mins ago

KRTN 171253Z AUTO 01003KT 10SM FEW120 13/11 A3015 RMK AO2 SLP141 T01330106
Observed
Jun-17 @ 12:53 UTC
Wind
  • 010° at 3 KTS
Visibility
10 SM
Flight Rules
VFR
Cloud Levels
  • Few at 12,000' AGL
Temperature
13°C / 55°F
Dewpoint
11°C / 52°F
Humidity
88%
Altimeter
30.15" Hg
Pressure
1021.02 hPa
Previous

2 hours ago

KRTN 171153Z AUTO 02006KT 10SM CLR 11/09 A3014 RMK AO2 SLP129 T01060089 10150 20100 51005
Observed
Jun-17 @ 11:53 UTC
Wind
  • 020° at 6 KTS
Visibility
10 SM
Flight Rules
VFR
Cloud Levels
  • Clear skies
Temperature
11°C / 52°F
Dewpoint
C / 48°F
Humidity
88%
Altimeter
30.14" Hg
Pressure
1020.62 hPa
Previous

3 hours ago

KRTN 171053Z AUTO 01004KT 10SM CLR 10/08 A3013 RMK AO2 SLP133 T01000083 $
Observed
Jun-17 @ 10:53 UTC
Wind
  • 010° at 4 KTS
Visibility
10 SM
Flight Rules
VFR
Cloud Levels
  • Clear skies
Temperature
10°C / 50°F
Dewpoint
C / 46°F
Humidity
88%
Altimeter
30.13" Hg
Pressure
1020.32 hPa